Time;durP1;ratioP1;P1;durP2;ratioP2;P2;SDS_P1;SDS_P2;PMS_P1;PMS_P2;Temp;Humidity;BMP_temperature;BMP_pressure;BME280_temperature;BME280_humidity;BME280_pressure;Samples;Min_cycle;Max_cycle;Signal;HPM_P1;HPM_P2
2021/01/10 00:00:21;;;;;;;20.50;12.27;;;2.40;99.90;;;;;;4961371;28;20313;-82
2021/01/10 00:02:48;;;;;;;21.37;10.70;;;2.30;99.90;;;;;;4966013;28;20190;-83
2021/01/10 00:05:27;;;;;;;21.80;12.13;;;2.20;99.90;;;;;;4963513;28;20910;-83
2021/01/10 00:07:54;;;;;;;19.10;11.77;;;2.30;99.90;;;;;;4962587;28;20462;-82
2021/01/10 00:10:20;;;;;;;21.40;11.80;;;2.30;99.90;;;;;;4964632;28;20408;-83
2021/01/10 00:12:46;;;;;;;17.80;10.57;;;2.30;99.90;;;;;;4961916;28;20431;-83
2021/01/10 00:15:14;;;;;;;21.20;11.27;;;2.30;99.90;;;;;;4961665;28;20469;-82
2021/01/10 00:17:40;;;;;;;24.37;12.10;;;2.30;99.90;;;;;;4977687;28;20183;-82
2021/01/10 00:20:08;;;;;;;21.90;11.60;;;2.30;99.90;;;;;;4963308;28;20504;-84
2021/01/10 00:22:33;;;;;;;22.63;12.23;;;2.30;99.90;;;;;;4964802;28;20416;-82
2021/01/10 00:24:59;;;;;;;23.83;12.40;;;2.30;99.90;;;;;;4964286;28;20430;-82
2021/01/10 00:27:26;;;;;;;23.33;13.23;;;2.30;99.90;;;;;;4964171;28;20255;-81
2021/01/10 00:29:52;;;;;;;22.80;11.20;;;2.30;99.90;;;;;;4967620;28;20250;-87
2021/01/10 00:32:19;;;;;;;20.23;11.13;;;2.30;99.90;;;;;;4962465;28;20548;-82
2021/01/10 00:34:45;;;;;;;23.10;11.50;;;2.30;99.90;;;;;;4966393;28;20516;-84
2021/01/10 00:37:13;;;;;;;19.17;10.33;;;2.20;99.90;;;;;;4964605;28;21156;-83
2021/01/10 00:39:40;;;;;;;21.80;10.20;;;2.10;99.90;;;;;;4964479;28;20298;-83
2021/01/10 00:42:07;;;;;;;17.30;9.37;;;2.10;99.90;;;;;;4963755;28;20960;-84
2021/01/10 00:44:32;;;;;;;23.73;12.23;;;2.20;99.90;;;;;;4962243;28;20425;-83
2021/01/10 00:46:58;;;;;;;19.03;11.40;;;2.20;99.90;;;;;;4982420;28;20431;-85
2021/01/10 00:49:24;;;;;;;23.37;12.00;;;2.10;99.90;;;;;;4966196;28;20171;-86
2021/01/10 00:51:50;;;;;;;15.70;11.00;;;2.10;99.90;;;;;;4968481;28;20705;-85
2021/01/10 00:54:15;;;;;;;15.70;10.30;;;2.10;99.90;;;;;;4964594;28;20171;-83
2021/01/10 00:56:41;;;;;;;15.83;10.40;;;2.10;99.90;;;;;;4963918;28;20479;-85
2021/01/10 00:59:07;;;;;;;23.37;13.63;;;2.10;99.90;;;;;;4963629;28;20177;-85
2021/01/10 01:01:32;;;;;;;19.43;10.87;;;2.10;99.90;;;;;;4965613;28;20713;-83
2021/01/10 01:03:58;;;;;;;20.60;10.77;;;2.10;99.90;;;;;;4967719;28;20181;-85
2021/01/10 01:06:23;;;;;;;19.90;11.70;;;2.10;99.90;;;;;;4963136;28;20588;-83
2021/01/10 01:08:49;;;;;;;18.40;11.07;;;2.10;99.90;;;;;;4965431;28;20183;-86
2021/01/10 01:11:15;;;;;;;18.27;9.87;;;2.20;99.90;;;;;;4961756;28;20576;-83
2021/01/10 01:13:40;;;;;;;13.13;9.67;;;2.20;99.90;;;;;;4963973;28;20183;-86
2021/01/10 01:16:07;;;;;;;13.90;9.90;;;2.20;99.90;;;;;;4963127;28;20214;-84
2021/01/10 01:18:34;;;;;;;18.50;10.27;;;2.20;99.90;;;;;;4959891;28;20175;-82
2021/01/10 01:21:00;;;;;;;15.73;9.10;;;2.00;99.90;;;;;;4964092;28;21255;-83
2021/01/10 01:23:25;;;;;;;18.07;9.50;;;2.00;99.90;;;;;;4977465;28;20426;-85
2021/01/10 01:25:51;;;;;;;17.00;10.73;;;2.00;99.90;;;;;;4980259;28;20430;-83
2021/01/10 01:28:16;;;;;;;16.97;9.63;;;2.00;99.90;;;;;;4963817;28;20257;-85
2021/01/10 01:30:42;;;;;;;18.40;10.03;;;2.00;99.90;;;;;;4973745;28;20575;-83
2021/01/10 01:33:08;;;;;;;15.87;9.60;;;2.10;99.90;;;;;;4961824;28;20181;-85
2021/01/10 01:35:33;;;;;;;16.13;10.33;;;2.10;99.90;;;;;;4977744;28;20246;-84
2021/01/10 01:37:59;;;;;;;17.60;10.60;;;2.00;99.90;;;;;;4979079;28;20828;-82
2021/01/10 01:40:26;;;;;;;17.50;10.20;;;2.00;99.90;;;;;;4962106;28;20223;-83
2021/01/10 01:42:52;;;;;;;16.40;9.80;;;2.00;99.90;;;;;;4964701;28;20764;-84
2021/01/10 01:45:17;;;;;;;18.10;9.63;;;2.00;99.90;;;;;;4979089;28;20431;-83
2021/01/10 01:47:44;;;;;;;16.53;10.07;;;1.90;99.90;;;;;;4979748;28;20184;-83
2021/01/10 01:50:10;;;;;;;20.00;10.60;;;1.90;99.90;;;;;;4981297;28;20257;-82
2021/01/10 01:52:35;;;;;;;14.43;9.33;;;1.90;99.90;;;;;;4981674;28;20426;-83
2021/01/10 01:55:03;;;;;;;21.70;11.67;;;2.00;99.90;;;;;;4980104;28;20469;-83
2021/01/10 01:57:28;;;;;;;18.20;11.17;;;1.90;99.90;;;;;;4981170;28;20180;-83
2021/01/10 01:59:54;;;;;;;20.30;11.20;;;1.90;99.90;;;;;;4966316;28;20475;-82
2021/01/10 02:02:20;;;;;;;19.17;11.60;;;1.80;99.90;;;;;;4965209;28;20190;-82
2021/01/10 02:04:53;;;;;;;25.07;11.80;;;1.70;99.90;;;;;;4967237;28;20179;-84
2021/01/10 02:07:41;;;;;;;15.13;9.70;;;1.70;99.90;;;;;;4967274;28;20263;-83
2021/01/10 02:10:07;;;;;;;18.57;10.90;;;1.80;99.90;;;;;;4982429;28;20418;-85
2021/01/10 02:12:36;;;;;;;16.33;9.87;;;1.80;99.90;;;;;;4979037;28;21002;-86
2021/01/10 02:15:09;;;;;;;16.83;10.30;;;1.90;99.90;;;;;;4985085;28;20472;-85
2021/01/10 02:17:35;;;;;;;16.93;10.10;;;1.70;99.90;;;;;;4966667;28;20489;-86
2021/01/10 02:20:12;;;;;;;15.50;9.60;;;1.70;99.90;;;;;;4967873;28;20791;-87
2021/01/10 02:23:04;;;;;;;15.70;10.17;;;1.60;99.90;;;;;;4969870;28;20449;-86
2021/01/10 02:25:32;;;;;;;15.73;9.93;;;1.60;99.90;;;;;;4970259;28;20452;-88
2021/01/10 02:27:59;;;;;;;18.13;10.73;;;1.60;99.90;;;;;;4967674;28;20441;-85
2021/01/10 02:30:26;;;;;;;22.17;11.70;;;1.60;99.90;;;;;;4965175;28;20440;-85
2021/01/10 02:32:57;;;;;;;23.10;12.20;;;1.60;99.90;;;;;;4971805;28;20439;-87
2021/01/10 02:35:23;;;;;;;16.10;11.13;;;1.60;99.90;;;;;;4965239;28;20993;-86
2021/01/10 02:38:18;;;;;;;19.60;12.03;;;1.50;99.90;;;;;;4971410;28;20418;-84
2021/01/10 02:41:15;;;;;;;16.53;10.60;;;1.60;99.90;;;;;;4958633;28;20543;-86
2021/01/10 02:43:48;;;;;;;20.60;11.03;;;1.50;99.90;;;;;;4976835;28;20434;-83
2021/01/10 02:46:14;;;;;;;13.90;9.33;;;1.50;99.90;;;;;;4976538;28;20471;-84
2021/01/10 02:48:39;;;;;;;20.27;11.40;;;1.50;99.90;;;;;;4991820;28;20434;-82
2021/01/10 02:51:05;;;;;;;17.13;10.50;;;1.50;99.90;;;;;;4976664;28;20176;-83
2021/01/10 02:53:30;;;;;;;16.60;9.40;;;1.50;99.90;;;;;;4975412;28;20231;-82
2021/01/10 02:55:56;;;;;;;17.40;9.97;;;1.50;99.90;;;;;;4976236;28;20227;-83
2021/01/10 02:58:27;;;;;;;16.60;11.07;;;1.50;99.90;;;;;;4976109;28;20208;-83
2021/01/10 03:00:58;;;;;;;20.30;13.03;;;1.60;99.90;;;;;;4976078;28;20234;-83
2021/01/10 03:03:23;;;;;;;16.77;10.77;;;1.60;99.90;;;;;;4976206;28;20409;-83
2021/01/10 03:05:50;;;;;;;19.47;11.80;;;1.60;99.90;;;;;;4976082;28;20439;-83
2021/01/10 03:08:17;;;;;;;19.80;12.23;;;1.60;99.90;;;;;;4976117;28;20173;-84
2021/01/10 03:10:44;;;;;;;22.00;10.30;;;1.60;99.90;;;;;;4976023;28;20827;-84
2021/01/10 03:13:10;;;;;;;18.30;10.90;;;1.60;99.90;;;;;;4975857;28;20428;-82
2021/01/10 03:15:36;;;;;;;21.20;12.40;;;1.60;99.90;;;;;;4975429;28;20542;-82
2021/01/10 03:18:19;;;;;;;23.13;13.20;;;1.60;99.90;;;;;;4975847;28;20437;-82
2021/01/10 03:20:45;;;;;;;21.43;12.27;;;1.50;99.90;;;;;;4975797;28;20749;-82
2021/01/10 03:23:11;;;;;;;18.90;11.30;;;1.50;99.90;;;;;;4975738;28;20416;-83
2021/01/10 03:25:37;;;;;;;18.97;11.37;;;1.40;99.90;;;;;;4975678;28;20523;-82
2021/01/10 03:28:03;;;;;;;20.03;11.37;;;1.40;99.90;;;;;;4975665;28;20189;-84
2021/01/10 03:30:29;;;;;;;21.67;13.13;;;1.40;99.90;;;;;;4990321;28;20814;-85
2021/01/10 03:32:54;;;;;;;21.23;14.80;;;1.30;99.90;;;;;;4975706;28;20412;-85
2021/01/10 03:35:20;;;;;;;19.50;11.47;;;1.20;99.90;;;;;;4975499;28;20265;-86
2021/01/10 03:37:46;;;;;;;21.63;12.13;;;1.30;99.90;;;;;;4975560;28;20229;-82
2021/01/10 03:40:12;;;;;;;19.57;11.40;;;1.30;99.90;;;;;;4975309;28;20464;-86
2021/01/10 03:42:39;;;;;;;22.30;12.87;;;1.20;99.90;;;;;;4975538;28;20725;-84
2021/01/10 03:45:05;;;;;;;18.67;12.73;;;1.20;99.90;;;;;;4975055;28;20456;-85
2021/01/10 03:47:31;;;;;;;20.20;12.90;;;1.20;99.90;;;;;;4974088;28;20420;-83
2021/01/10 03:49:57;;;;;;;22.27;12.80;;;1.20;99.90;;;;;;4975362;28;20423;-85
2021/01/10 03:52:22;;;;;;;23.37;13.20;;;1.20;99.90;;;;;;4975373;28;20174;-85
2021/01/10 03:54:48;;;;;;;22.20;12.00;;;1.20;99.90;;;;;;4990410;28;20297;-86
2021/01/10 03:57:13;;;;;;;23.10;12.60;;;1.30;99.90;;;;;;4974614;28;20552;-85
2021/01/10 03:59:39;;;;;;;24.00;14.57;;;1.30;99.90;;;;;;4975419;28;20189;-86
2021/01/10 04:02:05;;;;;;;19.40;12.07;;;1.30;99.90;;;;;;4975445;28;20192;-85
2021/01/10 04:04:31;;;;;;;29.27;13.93;;;1.30;99.90;;;;;;4990860;28;20540;-86
2021/01/10 04:06:56;;;;;;;23.47;13.70;;;1.30;99.90;;;;;;4975480;28;20425;-83
2021/01/10 04:09:22;;;;;;;23.00;11.80;;;1.20;99.90;;;;;;4989689;28;20189;-82
2021/01/10 04:11:48;;;;;;;24.60;14.40;;;1.30;99.90;;;;;;4991440;28;20268;-86
2021/01/10 04:14:13;;;;;;;21.07;11.40;;;1.30;99.90;;;;;;4974860;28;20247;-85
2021/01/10 04:16:39;;;;;;;21.47;13.10;;;1.30;99.90;;;;;;4975142;28;20245;-85
2021/01/10 04:19:04;;;;;;;24.00;13.73;;;1.30;99.90;;;;;;4990142;28;20177;-84
2021/01/10 04:21:34;;;;;;;20.40;12.20;;;1.30;99.90;;;;;;4975077;28;20681;-84
2021/01/10 04:24:00;;;;;;;22.20;13.40;;;1.30;99.90;;;;;;4974941;28;20173;-84
2021/01/10 04:26:26;;;;;;;26.30;14.47;;;1.30;99.90;;;;;;4975102;28;20464;-85
2021/01/10 04:28:52;;;;;;;23.87;13.40;;;1.20;99.90;;;;;;4974701;28;20615;-85
2021/01/10 04:31:18;;;;;;;25.23;13.93;;;1.30;99.90;;;;;;4974949;28;20497;-87
2021/01/10 04:33:43;;;;;;;18.73;13.13;;;1.20;99.90;;;;;;4974903;28;20176;-84
2021/01/10 04:36:09;;;;;;;22.63;13.53;;;1.20;99.90;;;;;;4974687;28;20208;-84
2021/01/10 04:38:34;;;;;;;22.20;13.67;;;1.20;99.90;;;;;;4989628;28;20229;-84
2021/01/10 04:41:00;;;;;;;25.30;14.37;;;1.20;99.90;;;;;;4987367;28;20589;-83
2021/01/10 04:43:26;;;;;;;21.87;11.40;;;1.20;99.90;;;;;;4974686;28;20296;-84
2021/01/10 04:45:52;;;;;;;27.23;13.90;;;1.20;99.90;;;;;;4974264;28;20432;-83
2021/01/10 04:48:18;;;;;;;25.77;14.87;;;1.20;99.90;;;;;;4973094;28;20236;-84
2021/01/10 04:50:44;;;;;;;22.40;13.63;;;1.20;99.90;;;;;;4973238;28;20240;-86
2021/01/10 04:53:13;;;;;;;22.50;13.43;;;1.20;99.90;;;;;;4973215;28;20508;-84
2021/01/10 04:55:41;;;;;;;26.70;15.43;;;1.20;99.90;;;;;;4973231;28;20571;-85
2021/01/10 04:58:08;;;;;;;26.37;13.20;;;1.20;99.90;;;;;;4974764;28;20412;-86
2021/01/10 05:00:35;;;;;;;27.07;15.43;;;1.20;99.90;;;;;;4973174;28;20840;-84
2021/01/10 05:03:16;;;;;;;23.17;13.73;;;1.10;99.90;;;;;;4973454;28;20784;-87
2021/01/10 05:05:42;;;;;;;24.40;13.80;;;1.10;99.90;;;;;;4973558;28;20442;-86
2021/01/10 05:08:12;;;;;;;26.47;13.37;;;1.10;99.90;;;;;;4974695;28;20416;-86
2021/01/10 05:10:38;;;;;;;20.67;12.87;;;1.10;99.90;;;;;;4974478;28;20165;-84
2021/01/10 05:13:05;;;;;;;25.90;13.57;;;1.20;99.90;;;;;;4974232;28;20507;-84
2021/01/10 05:15:30;;;;;;;22.53;13.37;;;1.20;99.90;;;;;;4973749;28;20460;-84
2021/01/10 05:17:57;;;;;;;27.77;12.70;;;1.30;99.90;;;;;;4974095;28;20435;-83
2021/01/10 05:20:31;;;;;;;23.50;15.03;;;1.30;99.90;;;;;;4975411;28;20409;-82
2021/01/10 05:22:58;;;;;;;20.80;13.60;;;1.30;99.90;;;;;;4978076;28;20421;-83
2021/01/10 05:25:25;;;;;;;25.00;15.70;;;1.40;99.90;;;;;;4977862;28;20417;-83
2021/01/10 05:27:56;;;;;;;26.50;14.07;;;1.40;99.90;;;;;;4977968;28;20539;-83
2021/01/10 05:30:33;;;;;;;29.73;13.63;;;1.40;99.90;;;;;;4976528;28;20844;-82
2021/01/10 05:33:04;;;;;;;27.07;13.90;;;1.40;99.90;;;;;;4977878;28;20777;-83
2021/01/10 05:35:56;;;;;;;23.47;12.73;;;1.40;99.90;;;;;;4977758;28;20908;-82
2021/01/10 05:38:32;;;;;;;25.80;13.30;;;1.50;99.90;;;;;;4977852;28;20439;-83
2021/01/10 05:41:09;;;;;;;21.50;11.80;;;1.50;99.90;;;;;;4977532;28;20556;-83
2021/01/10 05:43:35;;;;;;;23.90;14.30;;;1.50;99.90;;;;;;4977283;28;20409;-83
2021/01/10 05:46:14;;;;;;;26.47;13.40;;;1.70;99.90;;;;;;4977665;28;20422;-83
2021/01/10 05:48:42;;;;;;;25.00;14.20;;;1.70;99.90;;;;;;4977497;28;20164;-82
2021/01/10 05:51:11;;;;;;;22.77;13.00;;;1.80;99.90;;;;;;4977505;28;20938;-83
2021/01/10 05:53:40;;;;;;;22.50;13.40;;;1.90;99.90;;;;;;4992440;28;20443;-83
2021/01/10 05:56:06;;;;;;;25.80;13.13;;;1.90;99.90;;;;;;4977416;28;20495;-83
2021/01/10 05:58:32;;;;;;;27.00;15.47;;;1.80;99.90;;;;;;4976968;28;20844;-83
2021/01/10 06:01:10;;;;;;;21.10;11.93;;;1.80;99.90;;;;;;4977369;28;20185;-84
2021/01/10 06:03:37;;;;;;;22.87;14.77;;;1.80;99.90;;;;;;4977304;28;20414;-83
2021/01/10 06:06:04;;;;;;;22.03;12.93;;;1.90;99.90;;;;;;4977265;28;20424;-83
2021/01/10 06:08:37;;;;;;;24.30;12.30;;;1.90;99.90;;;;;;4977166;28;20409;-83
2021/01/10 06:11:15;;;;;;;24.47;12.90;;;1.80;99.90;;;;;;4977174;28;20497;-83
2021/01/10 06:14:01;;;;;;;22.90;12.43;;;1.80;99.90;;;;;;4976675;28;20417;-83
2021/01/10 06:16:37;;;;;;;22.63;13.10;;;1.70;99.90;;;;;;4977078;28;20472;-83
2021/01/10 06:19:08;;;;;;;26.07;13.70;;;1.70;99.90;;;;;;4977080;28;20406;-83
2021/01/10 06:21:34;;;;;;;24.07;14.47;;;1.80;99.90;;;;;;4977045;28;20413;-83
2021/01/10 06:24:05;;;;;;;22.70;12.73;;;1.80;99.90;;;;;;4975667;28;20513;-84
2021/01/10 06:26:32;;;;;;;29.23;14.07;;;1.80;99.90;;;;;;4977063;28;20413;-85
2021/01/10 06:28:58;;;;;;;20.73;13.00;;;1.70;99.90;;;;;;4976530;28;20514;-85
2021/01/10 06:31:29;;;;;;;23.10;13.97;;;1.70;99.90;;;;;;4976228;28;20907;-84
2021/01/10 06:34:02;;;;;;;24.30;12.93;;;1.60;99.90;;;;;;4976711;28;20416;-85
2021/01/10 06:36:32;;;;;;;25.67;13.50;;;1.60;99.90;;;;;;4976699;28;20526;-86
2021/01/10 06:39:00;;;;;;;30.27;14.43;;;1.60;99.90;;;;;;4976485;28;20742;-85
2021/01/10 06:41:46;;;;;;;22.93;12.23;;;1.70;99.90;;;;;;4975445;28;20519;-83
2021/01/10 06:44:11;;;;;;;22.77;13.30;;;1.70;99.90;;;;;;4965714;28;20505;-84
2021/01/10 06:46:37;;;;;;;30.00;15.43;;;1.80;99.90;;;;;;4976514;28;20841;-84
2021/01/10 06:49:06;;;;;;;23.30;13.93;;;1.80;99.90;;;;;;4976655;28;20171;-85
2021/01/10 06:51:35;;;;;;;25.40;14.03;;;1.80;99.90;;;;;;4976596;28;20626;-86
2021/01/10 06:54:05;;;;;;;24.97;14.17;;;1.80;99.90;;;;;;4976454;28;20408;-85
2021/01/10 06:56:32;;;;;;;26.57;13.27;;;1.70;99.90;;;;;;4976223;28;20990;-84
2021/01/10 06:59:52;;;;;;;24.93;13.57;;;1.70;99.90;;;;;;4975960;28;20414;-83
2021/01/10 07:02:18;;;;;;;19.50;11.90;;;1.70;99.90;;;;;;4916446;29;20427;-83
2021/01/10 07:04:54;;;;;;;28.37;13.60;;;1.60;99.90;;;;;;4971950;28;20416;-83
2021/01/10 07:07:38;;;;;;;22.27;11.17;;;1.50;99.90;;;;;;4976109;28;20174;-83
2021/01/10 07:10:23;;;;;;;25.60;13.43;;;1.50;99.90;;;;;;4972460;28;20434;-83
2021/01/10 07:12:49;;;;;;;22.60;13.63;;;1.50;99.90;;;;;;4973855;28;20497;-82
2021/01/10 07:15:18;;;;;;;26.10;14.93;;;1.60;99.90;;;;;;4975564;28;20459;-84
2021/01/10 07:18:02;;;;;;;27.23;14.27;;;1.70;99.90;;;;;;4974636;28;20638;-82
2021/01/10 07:20:36;;;;;;;24.83;12.90;;;1.70;99.90;;;;;;4975891;28;20425;-82
2021/01/10 07:23:24;;;;;;;27.30;15.40;;;1.70;99.90;;;;;;4990797;28;20778;-83
2021/01/10 07:25:50;;;;;;;21.93;12.60;;;1.70;99.90;;;;;;4975794;28;20519;-83
2021/01/10 07:28:35;;;;;;;28.43;13.37;;;1.70;99.90;;;;;;4974171;28;20446;-83
2021/01/10 07:31:11;;;;;;;24.03;15.10;;;1.60;99.90;;;;;;4974479;28;20178;-82
2021/01/10 07:33:37;;;;;;;29.23;14.40;;;1.60;99.90;;;;;;4975649;28;20567;-83
2021/01/10 07:36:03;;;;;;;27.00;15.10;;;1.60;99.90;;;;;;4975469;28;20556;-83
2021/01/10 07:38:31;;;;;;;25.43;13.23;;;1.60;99.90;;;;;;4974371;28;20179;-84
2021/01/10 07:41:23;;;;;;;26.90;14.20;;;1.60;99.90;;;;;;4975356;28;20492;-83
2021/01/10 07:43:50;;;;;;;25.93;14.47;;;1.60;99.90;;;;;;4975188;28;20757;-82
2021/01/10 07:46:51;;;;;;;24.03;13.10;;;1.70;99.90;;;;;;4975419;28;20823;-84
2021/01/10 07:49:19;;;;;;;21.70;12.07;;;1.70;99.90;;;;;;4975303;28;20754;-82
2021/01/10 07:51:45;;;;;;;29.47;13.93;;;1.70;99.90;;;;;;4973958;28;20421;-84
2021/01/10 07:54:11;;;;;;;26.60;13.60;;;1.80;99.90;;;;;;4990495;28;20524;-85
2021/01/10 07:56:37;;;;;;;29.30;13.73;;;1.80;99.90;;;;;;4975331;28;20517;-87
2021/01/10 07:59:29;;;;;;;20.10;10.77;;;1.90;99.90;;;;;;4975238;28;20514;-87
2021/01/10 08:01:55;;;;;;;22.43;13.40;;;1.90;99.90;;;;;;4971490;28;20189;-83
2021/01/10 08:04:33;;;;;;;25.30;14.70;;;1.90;99.90;;;;;;4973861;28;20457;-84
2021/01/10 08:07:00;;;;;;;25.70;12.77;;;2.00;99.90;;;;;;4975214;28;20179;-85
2021/01/10 08:09:33;;;;;;;25.43;14.27;;;2.00;99.90;;;;;;4973918;28;20464;-83
2021/01/10 08:12:02;;;;;;;22.77;14.00;;;2.00;99.90;;;;;;4975119;28;20419;-83
2021/01/10 08:14:28;;;;;;;23.43;12.80;;;2.00;99.90;;;;;;4974832;28;20463;-87
2021/01/10 08:16:54;;;;;;;22.20;11.87;;;2.10;99.90;;;;;;4973744;28;20481;-84
2021/01/10 08:19:19;;;;;;;21.20;11.87;;;2.10;99.90;;;;;;4955447;28;20204;-85
2021/01/10 08:21:45;;;;;;;24.43;13.37;;;2.20;99.90;;;;;;4955495;28;20179;-84
2021/01/10 08:24:11;;;;;;;24.53;13.40;;;2.20;99.90;;;;;;4954312;29;20718;-85
2021/01/10 08:26:41;;;;;;;22.00;12.53;;;2.20;99.90;;;;;;4955577;28;20535;-83
2021/01/10 08:29:07;;;;;;;23.57;12.60;;;2.20;99.90;;;;;;4955309;28;20409;-84
2021/01/10 08:31:34;;;;;;;23.70;12.50;;;2.20;99.90;;;;;;4955444;28;20980;-84
2021/01/10 08:34:06;;;;;;;19.70;12.10;;;2.30;99.90;;;;;;4955397;28;20419;-84
2021/01/10 08:36:33;;;;;;;21.77;12.03;;;2.30;99.90;;;;;;4955417;28;21002;-85
2021/01/10 08:39:08;;;;;;;19.40;10.60;;;2.20;99.90;;;;;;4955162;28;20448;-84
2021/01/10 08:41:37;;;;;;;20.17;13.30;;;2.20;99.90;;;;;;4955408;28;20425;-84
2021/01/10 08:44:17;;;;;;;18.17;11.47;;;2.20;99.90;;;;;;4954958;28;20409;-84
2021/01/10 08:46:44;;;;;;;20.77;12.50;;;2.20;99.90;;;;;;4955267;28;20421;-85
2021/01/10 08:49:15;;;;;;;20.10;10.77;;;2.20;99.90;;;;;;4970123;28;20781;-82
2021/01/10 08:51:42;;;;;;;20.87;10.60;;;2.30;99.90;;;;;;4972618;28;20418;-84
2021/01/10 08:54:16;;;;;;;22.60;12.63;;;2.40;99.90;;;;;;4960349;28;20427;-84
2021/01/10 08:56:43;;;;;;;21.13;10.80;;;2.50;99.90;;;;;;4969829;28;20570;-85
2021/01/10 08:59:09;;;;;;;21.63;11.63;;;2.60;99.90;;;;;;4955046;28;20418;-83
2021/01/10 09:01:36;;;;;;;19.30;11.30;;;2.70;99.90;;;;;;4955284;28;20421;-85
2021/01/10 09:04:06;;;;;;;19.60;10.50;;;3.20;99.90;;;;;;4955387;28;20413;-86
2021/01/10 09:06:58;;;;;;;14.57;10.33;;;4.00;99.90;;;;;;4955236;28;20827;-85
2021/01/10 09:09:39;;;;;;;15.37;6.47;;;4.90;99.90;;;;;;4969998;28;20448;-83
2021/01/10 09:12:20;;;;;;;15.07;9.10;;;6.00;99.90;;;;;;4955007;28;20419;-84
2021/01/10 09:14:49;;;;;;;16.73;8.40;;;;;;;;;;4969199;28;20431;-85
2021/01/10 09:17:17;;;;;;;11.30;7.23;;;;;;;;;;4969815;28;20437;-84
2021/01/10 09:19:43;;;;;;;14.80;7.70;;;;;;;;;;4954815;28;20413;-83
2021/01/10 09:22:09;;;;;;;11.80;8.33;;;;;;;;;;4969807;28;20425;-85
2021/01/10 09:24:36;;;;;;;14.43;7.30;;;;;;;;;;4969852;28;20425;-83
2021/01/10 09:27:13;;;;;;;14.30;7.77;;;;;;;;;;4955138;28;20841;-84
2021/01/10 09:29:40;;;;;;;13.40;7.80;;;;;;;;;;4954962;28;20444;-87
2021/01/10 09:32:06;;;;;;;13.80;7.50;;;;;;;;;;4967156;28;20452;-83
2021/01/10 09:34:32;;;;;;;10.97;8.30;;;;;;;;;;4974539;28;20404;-83
2021/01/10 09:37:02;;;;;;;12.00;7.03;;;;;;;;;;4974744;28;20507;-83
2021/01/10 09:39:44;;;;;;;15.63;9.33;;;;;;;;;;4974572;28;20463;-84
2021/01/10 09:42:10;;;;;;;15.40;8.60;;;;;;;;;;4976225;28;20439;-84
2021/01/10 09:44:36;;;;;;;14.90;8.00;;;;;;;;;;4973813;28;20435;-85
2021/01/10 09:47:03;;;;;;;15.30;8.60;;;;;;;;;;4973698;28;20424;-84
2021/01/10 09:49:34;;;;;;;12.87;7.40;;;;;;;;;;4973467;28;20413;-84
2021/01/10 09:52:01;;;;;;;12.03;7.87;;;;;;;;;;4973197;28;20916;-83
2021/01/10 09:54:28;;;;;;;16.67;8.77;;;;;;;;;;4973384;28;20799;-86
2021/01/10 09:56:56;;;;;;;22.57;10.50;;;;;;;;;;4974294;28;20486;-85
2021/01/10 09:59:32;;;;;;;16.70;10.70;;;;;;;;;;4973391;28;20416;-85
2021/01/10 10:02:07;;;;;;;19.90;10.87;;;;;;;;;;4972635;28;20423;-81
2021/01/10 10:04:33;;;;;;;17.50;9.80;;;;;;;;;;4972849;28;20527;-84
2021/01/10 10:06:59;;;;;;;17.17;10.20;;;;;;;;;;4973547;28;20412;-83
2021/01/10 10:09:44;;;;;;;17.03;8.80;;;;;;;;;;4977385;28;20900;-82
2021/01/10 10:12:11;;;;;;;15.30;9.47;;;;;;;;;;4977605;28;20812;-84
2021/01/10 10:14:37;;;;;;;20.03;10.20;;;;;;;;;;4977041;28;20423;-82
2021/01/10 10:17:03;;;;;;;15.87;9.83;;;;;;;;;;4977437;28;20471;-81
2021/01/10 10:19:29;;;;;;;20.20;12.07;;;;;;;;;;4977499;28;20400;-83
2021/01/10 10:21:55;;;;;;;19.20;11.60;;;;;;;;;;4977316;28;20423;-83
2021/01/10 10:24:21;;;;;;;20.40;11.50;;;;;;;;;;4977216;28;20415;-83
2021/01/10 10:26:47;;;;;;;21.13;10.17;;;;;;;;;;4976122;28;20420;-85
2021/01/10 10:29:14;;;;;;;21.67;9.60;;;;;;;;;;4976972;28;20420;-83
2021/01/10 10:31:40;;;;;;;17.50;11.57;;;;;;;;;;4977373;28;20419;-83
2021/01/10 10:34:06;;;;;;;18.77;11.40;;;;;;;;;;4977282;28;20490;-83
2021/01/10 10:36:32;;;;;;;16.77;10.90;;;;;;;;;;4977036;28;20476;-84
2021/01/10 10:38:58;;;;;;;19.43;11.27;;;;;;;;;;4977047;28;20411;-84
2021/01/10 10:41:24;;;;;;;20.73;10.60;;;;;;;;;;4977831;28;20455;-85
2021/01/10 10:43:50;;;;;;;21.90;11.93;;;;;;;;;;4979345;28;20814;-84
2021/01/10 10:46:16;;;;;;;17.37;10.03;;;;;;;;;;4977612;28;20420;-84
2021/01/10 10:48:42;;;;;;;16.30;10.00;;;;;;;;;;4977805;28;20424;-84
2021/01/10 10:51:08;;;;;;;17.17;9.30;;;;;;;;;;4970352;28;20428;-82
2021/01/10 10:53:34;;;;;;;18.23;9.53;;;;;;;;;;4975555;28;20431;-83
2021/01/10 10:56:00;;;;;;;21.67;10.70;;;;;;;;;;4963116;28;20487;-83
2021/01/10 10:58:26;;;;;;;20.33;10.60;;;;;;;;;;4957020;28;20544;-82
2021/01/10 11:00:53;;;;;;;21.73;10.37;;;;;;;;;;5021771;23;20524;-85
2021/01/10 11:03:19;;;;;;;17.73;10.83;;;;;;;;;;5014032;28;20418;-85
2021/01/10 11:05:46;;;;;;;15.10;9.50;;;;;;;;;;5000788;28;20427;-83
2021/01/10 11:08:12;;;;;;;19.27;10.13;;;;;;;;;;4994266;28;20434;-83
2021/01/10 11:10:38;;;;;;;19.40;10.50;;;;;;;;;;5021947;28;20476;-83
2021/01/10 11:13:05;;;;;;;20.87;10.53;;;;;;;;;;5014443;28;20414;-81
2021/01/10 11:15:31;;;;;;;15.93;9.57;;;;;;;;;;5012781;28;20499;-82
2021/01/10 11:17:57;;;;;;;16.80;8.87;;;;;;;;;;5014424;28;20901;-80
2021/01/10 11:20:24;;;;;;;16.33;9.60;;;;;;;;;;5014866;28;20803;-87
2021/01/10 11:22:50;;;;;;;18.40;10.07;;;;;;;;;;5029978;28;20797;-81
2021/01/10 11:25:17;;;;;;;18.30;8.87;;;;;;;;;;5015021;28;20426;-83
2021/01/10 11:27:43;;;;;;;15.70;9.67;;;;;;;;;;5015194;28;20778;-81
2021/01/10 11:30:09;;;;;;;15.83;8.87;;;;;;;;;;5006525;28;20441;-85
2021/01/10 11:32:37;;;;;;;17.97;10.07;;;;;;;;;;5009896;28;20418;-81
2021/01/10 11:35:03;;;;;;;16.97;9.43;;;;;;;;;;5015728;28;20426;-80
2021/01/10 11:37:29;;;;;;;12.63;9.53;;;;;;;;;;5012986;28;20984;-81
2021/01/10 11:39:55;;;;;;;16.87;10.20;;;;;;;;;;5012991;28;21274;-81
2021/01/10 11:42:21;;;;;;;14.10;8.27;;;;;;;;;;5012586;28;20434;-81
2021/01/10 11:44:48;;;;;;;13.43;9.23;;;;;;;;;;5014245;28;20404;-81
2021/01/10 11:47:14;;;;;;;11.93;9.20;;;;;;;;;;5014143;28;20473;-81
2021/01/10 11:49:40;;;;;;;11.53;7.73;;;;;;;;;;5014680;28;20843;-83
2021/01/10 11:52:06;;;;;;;13.80;9.00;;;;;;;;;;5013906;28;20418;-82
2021/01/10 11:54:32;;;;;;;13.10;8.07;;;;;;;;;;5012867;28;20516;-81
2021/01/10 11:56:58;;;;;;;18.53;11.37;;;;;;;;;;5013899;28;20531;-81
2021/01/10 11:59:24;;;;;;;14.97;10.70;;;;;;;;;;5010170;28;20426;-81
2021/01/10 12:01:50;;;;;;;19.03;10.60;;;;;;;;;;5013528;28;20803;-83
2021/01/10 12:04:16;;;;;;;18.97;10.37;;;;;;;;;;5011653;28;20406;-82
2021/01/10 12:06:42;;;;;;;18.00;9.40;;;;;;;;;;5007201;28;20474;-82
2021/01/10 12:09:11;;;;;;;16.10;11.00;;;;;;;;;;5012513;28;20418;-82
2021/01/10 12:11:40;;;;;;;19.27;10.77;;;;;;;;;;5008441;28;20464;-82
2021/01/10 12:14:07;;;;;;;15.70;10.17;;;;;;;;;;5011872;28;20414;-81
2021/01/10 12:16:35;;;;;;;17.10;10.37;;;;;;;;;;5012133;28;20474;-82
2021/01/10 12:19:02;;;;;;;18.73;10.33;;;;;;;;;;5012843;28;20513;-82
2021/01/10 12:21:28;;;;;;;17.50;10.03;;;;;;;;;;5017895;28;20792;-83
2021/01/10 12:23:54;;;;;;;15.60;9.87;;;;;;;;;;5014167;28;20405;-82
2021/01/10 12:26:20;;;;;;;14.63;9.40;;;;;;;;;;5012397;28;21013;-81
2021/01/10 12:28:46;;;;;;;17.40;10.90;;;;;;;;;;5012775;28;20426;-81
2021/01/10 12:31:13;;;;;;;15.20;9.53;;;;;;;;;;5010475;28;20425;-81
2021/01/10 12:33:40;;;;;;;16.17;9.43;;;;;;;;;;5001878;28;20751;-82
2021/01/10 12:36:07;;;;;;;15.20;8.97;;;;;;;;;;5026512;28;20470;-86
2021/01/10 12:38:33;;;;;;;20.70;11.07;;;;;;;;;;5006699;28;20456;-83
2021/01/10 12:40:59;;;;;;;15.87;10.20;;;;;;;;;;5012587;28;20494;-83
2021/01/10 12:43:25;;;;;;;15.50;9.10;;;;;;;;;;5006576;28;20502;-85
2021/01/10 12:45:51;;;;;;;20.00;11.70;;;;;;;;;;5002321;28;20793;-86
2021/01/10 12:48:18;;;;;;;16.13;9.73;;;;;;;;;;5019219;28;20426;-86
2021/01/10 12:50:47;;;;;;;18.60;10.37;;;;;;;;;;5011767;28;20906;-83
2021/01/10 12:53:14;;;;;;;17.10;9.77;;;;;;;;;;5011976;28;20893;-83
2021/01/10 12:55:40;;;;;;;14.37;9.83;;;;;;;;;;5013415;28;20479;-83
2021/01/10 12:58:07;;;;;;;14.87;9.33;;;;;;;;;;5011938;28;20481;-84
2021/01/10 13:00:33;;;;;;;12.40;8.70;;;;;;;;;;5012000;28;20540;-83
2021/01/10 13:03:00;;;;;;;15.70;9.33;;;;;;;;;;5011661;28;21262;-83
2021/01/10 13:05:26;;;;;;;18.80;10.20;;;;;;;;;;5013364;28;20426;-83
2021/01/10 13:07:52;;;;;;;15.90;8.80;;;;;;;;;;5013243;28;20773;-84
2021/01/10 13:10:18;;;;;;;16.10;9.70;;;;;;;;;;5013013;28;20455;-81
2021/01/10 13:12:45;;;;;;;16.63;9.90;;;;;;;;;;5006270;28;20414;-83
2021/01/10 13:15:11;;;;;;;18.07;10.47;;;;;;;;;;5026441;28;20421;-83